Terminal Aerodrome Forecast
Issued by NWS

Current Version | Previous Version | Text Only | Print | Product List | Glossary Off
Versions: 1 2 3 4 5 6 7 8 9 10 11 12 13 14 15 16 17

000
FTUS41 KPBZ 160520
TAFHLG
TAF
KHLG 160520Z 1606/1706 31010KT P6SM BKN025
     FM161500 33012KT P6SM BKN035
     FM161900 32012KT P6SM SCT040
     FM170200 00000KT P6SM SKC=

USA.gov is the U.S. government's official web portal to all federal, state and local government web resources and services.